Iver, United Kingdom

5:59 AM BST on April 27, 2017 (GMT +0100)
IBUCKSIV1 | | Change Station

Elev 112 ft 51.50 °N, 0.51 °W | Updated 3 minutes ago

Clear
Clear
31.3 °F
Feels Like 31 °F
N
0.0
Wind Variable Wind from North
Gusts 0.0 mph

Today
High -- | Low -- °F
--% Chance of Precip.
Yesterday
High -- | Low -- °F
Precip. -- in
Pressure 30.12 in
Visibility 5.6 miles
Clouds
Windchill 31 °F
Dew Point 25 °F
Humidity 78%
Rainfall Not available.
Snow Depth Not available.
5:41 AM 8:18 PM
New Moon, 1% visible
METAR EGLL 270450Z AUTO 28003KT 9000 NCD 01/00 Q1020 NOSIG
Pressure 30.12 in
Visibility 5.6 miles
Clouds
Windchill 31 °F
Dew Point 25 °F
Humidity 78%
Rainfall Not available.
Snow Depth Not available.
5:41 AM 8:18 PM
New Moon, 1% visible
METAR EGLL 270450Z AUTO 28003KT 9000 NCD 01/00 Q1020 NOSIG

Get Severe Weather Alerts

Thanks for signing up!

Be on the lookout for a verification email in your inbox.

You'll start receiving the daily forecast at 8 AM.

×

10-Day Weather Forecast

×

Almanac

Astronomy

Apr. 27, 2017 Rise Set
Actual Time
Civil Twilight
Nautical Twilight
Astronomical Twilight
Moon
Length of Visible Light
Length of Day
Tomorrow will be .
, % of the Moon is Illuminated

Today's Extremes

Country Highs Country Lows

Community

WunderPhotos

WunderBlog® & News

Nearby

Air Quality

  Air Quality AQ Index Pollutant
Not available.

Snow Depth

Station Depth Elevation

Earthquake Activity

City Distance Mag. Time & Date
Minimum magnitude displayed is 2.5.

Coastal Water Temperatures

Place Temperature

Stations

Nearby Weather Stations

Station Location Temp. Windchill Dew Point Humidity Wind Precip. Elev Updated Type